Time;durP1;ratioP1;P1;durP2;ratioP2;P2;SDS_P1;SDS_P2;PMS_P1;PMS_P2;Temp;Humidity;BMP_temperature;BMP_pressure;BME280_temperature;BME280_humidity;BME280_pressure;Samples;Min_cycle;Max_cycle;Signal;HPM_P1;HPM_P2
2022/11/10 00:00:54;;;;;;;10.27;8.10;;;10.40;99.90;;;;;;5079182;28;20466;-68
2022/11/10 00:03:23;;;;;;;9.87;8.40;;;10.40;99.90;;;;;;5073769;28;20463;-70
2022/11/10 00:05:49;;;;;;;14.63;7.97;;;10.50;99.90;;;;;;5067430;28;20805;-71
2022/11/10 00:08:17;;;;;;;12.70;9.13;;;10.50;99.90;;;;;;5072022;28;20468;-69
2022/11/10 00:10:57;;;;;;;15.10;7.53;;;10.50;99.90;;;;;;5070468;28;20469;-68
2022/11/10 00:13:26;;;;;;;12.63;8.00;;;10.50;99.90;;;;;;5069797;28;20588;-69
2022/11/10 00:18:40;;;;;;;8.77;7.60;;;10.60;99.90;;;;;;5074759;28;20462;-71
2022/11/10 00:21:09;;;;;;;12.33;8.23;;;10.60;99.90;;;;;;5066667;28;20830;-71
2022/11/10 00:23:36;;;;;;;10.87;8.37;;;10.50;99.90;;;;;;5073042;28;20708;-70
2022/11/10 00:26:03;;;;;;;11.90;9.07;;;10.50;99.90;;;;;;5072615;28;20456;-68
2022/11/10 00:28:31;;;;;;;13.03;8.30;;;10.40;99.90;;;;;;5071758;28;20463;-71
2022/11/10 00:30:59;;;;;;;9.43;8.57;;;10.40;99.90;;;;;;5074802;28;20465;-70
2022/11/10 00:33:26;;;;;;;18.23;8.63;;;10.40;99.90;;;;;;5070453;28;20991;-68
2022/11/10 00:35:54;;;;;;;9.73;7.93;;;10.30;99.90;;;;;;5073212;28;20826;-68
2022/11/10 00:38:21;;;;;;;11.23;8.50;;;10.30;99.90;;;;;;5065448;28;20877;-68
2022/11/10 00:40:48;;;;;;;18.10;9.10;;;10.20;99.90;;;;;;5069167;28;20505;-68
2022/11/10 00:43:15;;;;;;;17.37;10.20;;;10.20;99.90;;;;;;5073452;28;20467;-68
2022/11/10 00:45:44;;;;;;;10.87;8.97;;;10.10;99.90;;;;;;5075376;28;20461;-68
2022/11/10 00:48:11;;;;;;;14.20;8.57;;;10.10;99.90;;;;;;5066797;28;20469;-71
2022/11/10 00:50:38;;;;;;;14.77;9.03;;;10.00;99.90;;;;;;5073650;28;20470;-69
2022/11/10 00:53:06;;;;;;;11.17;7.90;;;10.00;99.90;;;;;;5073835;28;20476;-69
2022/11/10 00:55:36;;;;;;;12.87;8.60;;;10.00;99.90;;;;;;5079060;28;20483;-70
2022/11/10 00:58:03;;;;;;;10.57;8.40;;;9.90;99.90;;;;;;5071253;28;20455;-70
2022/11/10 01:00:29;;;;;;;10.93;8.67;;;9.90;99.90;;;;;;5070882;28;20480;-68
2022/11/10 01:02:56;;;;;;;16.77;8.93;;;9.80;99.90;;;;;;5074791;28;20542;-68
2022/11/10 01:05:23;;;;;;;23.53;9.33;;;9.90;99.90;;;;;;5073877;28;20481;-71
2022/11/10 01:07:50;;;;;;;13.73;8.20;;;9.80;99.90;;;;;;5076716;28;20801;-71
2022/11/10 01:10:18;;;;;;;12.83;9.33;;;9.80;99.90;;;;;;5070903;28;20465;-68
2022/11/10 01:12:45;;;;;;;14.70;9.03;;;9.90;99.90;;;;;;5073557;28;20935;-70
2022/11/10 01:15:12;;;;;;;16.17;8.00;;;9.80;99.90;;;;;;5075643;28;20500;-68
2022/11/10 01:17:39;;;;;;;9.03;8.23;;;9.80;99.90;;;;;;5079074;28;20653;-68
2022/11/10 01:20:07;;;;;;;10.13;7.93;;;9.80;99.90;;;;;;5075157;28;20466;-68
2022/11/10 01:22:34;;;;;;;8.33;7.40;;;9.90;99.90;;;;;;5071861;28;20741;-69
2022/11/10 01:25:01;;;;;;;12.33;7.47;;;9.80;99.90;;;;;;5076389;28;20469;-69
2022/11/10 01:27:30;;;;;;;9.50;7.43;;;9.90;99.90;;;;;;5067626;28;20616;-68
2022/11/10 01:29:56;;;;;;;11.37;7.70;;;9.90;99.90;;;;;;5074485;28;20473;-68
2022/11/10 01:32:24;;;;;;;12.50;8.03;;;9.90;99.90;;;;;;5076428;28;20463;-68
2022/11/10 01:34:51;;;;;;;13.93;7.63;;;9.90;99.90;;;;;;5074256;28;20490;-68
2022/11/10 01:37:18;;;;;;;16.33;8.00;;;9.90;99.90;;;;;;5072041;28;20493;-68
2022/11/10 01:39:45;;;;;;;16.37;8.17;;;9.90;99.90;;;;;;5074224;28;20467;-68
2022/11/10 01:42:11;;;;;;;11.50;7.50;;;9.90;99.90;;;;;;5073435;28;20454;-67
2022/11/10 01:44:41;;;;;;;9.80;7.53;;;9.80;99.90;;;;;;5076077;28;20466;-67
2022/11/10 01:47:09;;;;;;;12.13;7.30;;;9.90;99.90;;;;;;5072542;28;20513;-69
2022/11/10 01:49:36;;;;;;;7.97;6.83;;;9.90;99.90;;;;;;5067550;28;20474;-68
2022/11/10 01:52:08;;;;;;;9.73;6.87;;;10.00;99.90;;;;;;5078871;28;20492;-68
2022/11/10 01:54:37;;;;;;;7.23;6.53;;;10.00;99.90;;;;;;5070617;28;20491;-71
2022/11/10 01:57:07;;;;;;;14.00;7.07;;;10.10;99.90;;;;;;5070263;28;20474;-68
2022/11/10 01:59:39;;;;;;;8.13;6.40;;;10.10;99.90;;;;;;5068095;28;20466;-68
2022/11/10 02:02:13;;;;;;;16.40;7.50;;;10.10;99.90;;;;;;5066527;28;20471;-68
2022/11/10 02:04:42;;;;;;;8.30;7.00;;;10.10;99.90;;;;;;5076283;28;21037;-70
2022/11/10 02:07:10;;;;;;;15.53;6.90;;;10.00;99.90;;;;;;5065383;28;20831;-67
2022/11/10 02:09:38;;;;;;;14.40;8.13;;;10.00;99.90;;;;;;5072441;28;20462;-68
2022/11/10 02:12:06;;;;;;;9.17;6.90;;;10.00;99.90;;;;;;5072747;28;20532;-70
2022/11/10 02:14:33;;;;;;;16.30;8.33;;;9.90;99.90;;;;;;5073209;28;21007;-70
2022/11/10 02:17:00;;;;;;;13.80;7.50;;;9.90;99.90;;;;;;5073723;28;20833;-67
2022/11/10 02:19:29;;;;;;;8.43;7.60;;;9.80;99.90;;;;;;5069914;28;20984;-68
2022/11/10 02:21:57;;;;;;;13.60;7.00;;;9.80;99.90;;;;;;5069090;28;20474;-68
2022/11/10 02:24:23;;;;;;;13.53;7.40;;;9.80;99.90;;;;;;5072660;28;20467;-68
2022/11/10 02:26:54;;;;;;;16.37;8.20;;;9.70;99.90;;;;;;5074243;28;20465;-68
2022/11/10 02:29:21;;;;;;;18.30;8.20;;;9.70;99.90;;;;;;5073700;28;20459;-71
2022/11/10 02:31:48;;;;;;;11.57;7.60;;;9.70;99.90;;;;;;5074136;28;20466;-69
2022/11/10 02:34:15;;;;;;;9.67;7.87;;;9.70;99.90;;;;;;5076292;28;20892;-68
2022/11/10 02:36:43;;;;;;;23.40;7.40;;;9.60;99.90;;;;;;5065587;28;20710;-67
2022/11/10 02:39:11;;;;;;;17.43;8.83;;;9.60;99.90;;;;;;5073100;28;20467;-68
2022/11/10 02:41:38;;;;;;;13.20;7.57;;;9.60;99.90;;;;;;5073966;28;20841;-68
2022/11/10 02:44:06;;;;;;;15.00;7.57;;;9.50;99.90;;;;;;5069402;28;20832;-68
2022/11/10 02:46:36;;;;;;;8.77;7.90;;;9.60;99.90;;;;;;5079029;28;20466;-70
2022/11/10 02:49:03;;;;;;;11.67;7.73;;;9.50;99.90;;;;;;5079359;28;20462;-71
2022/11/10 02:51:31;;;;;;;8.67;7.77;;;9.50;99.90;;;;;;5071506;28;20539;-67
2022/11/10 02:53:58;;;;;;;9.83;8.20;;;9.50;99.90;;;;;;5071733;28;20490;-69
2022/11/10 02:56:26;;;;;;;9.43;8.47;;;9.50;99.90;;;;;;5069559;28;20930;-68
2022/11/10 02:58:53;;;;;;;9.53;6.70;;;9.50;99.90;;;;;;5074551;28;20957;-69
2022/11/10 03:01:23;;;;;;;10.07;6.63;;;9.40;99.90;;;;;;5070159;28;20500;-68
2022/11/10 03:03:49;;;;;;;10.17;8.20;;;9.40;99.90;;;;;;5070889;28;20511;-68
2022/11/10 03:06:16;;;;;;;11.00;7.80;;;9.40;99.90;;;;;;5074531;28;20819;-70
2022/11/10 03:08:44;;;;;;;9.47;6.87;;;9.40;99.90;;;;;;5081707;28;20829;-68
2022/11/10 03:11:11;;;;;;;11.07;7.53;;;9.50;99.90;;;;;;5074193;28;20462;-68
2022/11/10 03:13:39;;;;;;;12.57;6.83;;;9.40;99.90;;;;;;5069146;28;20469;-70
2022/11/10 03:16:06;;;;;;;11.23;6.87;;;9.40;99.90;;;;;;5076176;28;20871;-70
2022/11/10 03:18:33;;;;;;;18.73;7.47;;;9.40;99.90;;;;;;5073999;28;20471;-69
2022/11/10 03:21:00;;;;;;;18.10;7.27;;;9.40;99.90;;;;;;5073405;28;20465;-68
2022/11/10 03:23:27;;;;;;;9.70;7.23;;;9.50;99.90;;;;;;5073577;28;20476;-68
2022/11/10 03:25:55;;;;;;;9.70;7.33;;;9.50;99.90;;;;;;5080506;28;20461;-69
2022/11/10 03:28:21;;;;;;;11.30;6.50;;;9.50;99.90;;;;;;5076390;28;20462;-68
2022/11/10 03:30:52;;;;;;;11.13;6.63;;;9.60;99.90;;;;;;5071006;28;20487;-67
2022/11/10 03:33:20;;;;;;;12.23;5.97;;;9.50;99.90;;;;;;5073258;28;21110;-69
2022/11/10 03:35:47;;;;;;;12.20;7.10;;;9.60;99.90;;;;;;5076083;28;20490;-68
2022/11/10 03:38:14;;;;;;;24.67;8.67;;;9.60;99.90;;;;;;5080574;28;20472;-68
2022/11/10 03:40:41;;;;;;;10.10;6.80;;;9.60;99.90;;;;;;5070823;28;20524;-69
2022/11/10 03:43:11;;;;;;;12.10;7.47;;;9.60;99.90;;;;;;5072730;28;20465;-68
2022/11/10 03:45:38;;;;;;;14.80;7.43;;;9.60;99.90;;;;;;5074230;28;21173;-68
2022/11/10 03:48:06;;;;;;;16.33;7.23;;;9.50;99.90;;;;;;5074378;28;20465;-68
2022/11/10 03:50:34;;;;;;;11.83;7.30;;;9.50;99.90;;;;;;5077630;28;20465;-68
2022/11/10 03:53:02;;;;;;;13.10;7.00;;;9.40;99.90;;;;;;5076961;28;20470;-68
2022/11/10 03:55:28;;;;;;;11.70;6.33;;;9.40;99.90;;;;;;5074135;28;20494;-68
2022/11/10 03:57:55;;;;;;;13.63;6.00;;;9.40;99.90;;;;;;5071359;28;20463;-68
2022/11/10 04:00:22;;;;;;;11.97;7.40;;;9.30;99.90;;;;;;5071612;28;21055;-68
2022/11/10 04:02:50;;;;;;;15.03;8.10;;;9.30;99.90;;;;;;5073185;28;20454;-67
2022/11/10 04:10:49;;;;;;;14.90;6.20;;;9.30;99.90;;;;;;5072807;28;20480;-68
2022/11/10 04:16:01;;;;;;;10.20;6.37;;;9.50;99.90;;;;;;5078591;28;20831;-68
2022/11/10 04:18:28;;;;;;;14.47;6.63;;;9.60;99.90;;;;;;5074401;28;20466;-69
2022/11/10 04:20:59;;;;;;;19.80;7.17;;;9.60;99.90;;;;;;5073072;28;20462;-70
2022/11/10 04:23:29;;;;;;;15.73;7.13;;;9.60;99.90;;;;;;5078442;28;20472;-69
2022/11/10 04:28:47;;;;;;;9.57;7.07;;;9.50;99.90;;;;;;5071835;28;20479;-68
2022/11/10 04:31:15;;;;;;;14.53;7.20;;;9.50;99.90;;;;;;5076349;28;20465;-68
2022/11/10 04:33:42;;;;;;;10.37;7.03;;;9.50;99.90;;;;;;5078777;28;20547;-68
2022/11/10 04:36:13;;;;;;;10.40;7.60;;;9.50;99.90;;;;;;5073309;28;20500;-68
2022/11/10 04:38:40;;;;;;;10.07;7.37;;;9.40;99.90;;;;;;5070085;28;20470;-68
2022/11/10 04:41:08;;;;;;;14.97;8.77;;;9.40;99.90;;;;;;5075429;28;20464;-70
2022/11/10 04:43:36;;;;;;;12.50;7.87;;;9.40;99.90;;;;;;5070547;28;20463;-70
2022/11/10 04:46:04;;;;;;;15.23;7.57;;;9.40;99.90;;;;;;5076727;28;20459;-69
2022/11/10 04:48:33;;;;;;;10.57;6.33;;;9.40;99.90;;;;;;5076837;28;20474;-70
2022/11/10 04:51:04;;;;;;;13.43;7.03;;;9.30;99.90;;;;;;5067013;28;20460;-68
2022/11/10 04:53:33;;;;;;;16.30;8.20;;;9.30;99.90;;;;;;5076152;28;20926;-67
2022/11/10 04:56:00;;;;;;;14.30;6.87;;;9.30;99.90;;;;;;5077038;28;21097;-68
2022/11/10 04:58:27;;;;;;;21.73;8.60;;;9.30;99.90;;;;;;5069451;28;20835;-70
2022/11/10 05:00:54;;;;;;;17.80;7.97;;;9.30;99.90;;;;;;5071528;28;20478;-68
2022/11/10 05:03:21;;;;;;;13.30;7.40;;;9.30;99.90;;;;;;5073162;28;20466;-68
2022/11/10 05:05:49;;;;;;;12.60;7.03;;;9.20;99.90;;;;;;5069578;28;20968;-68
2022/11/10 05:08:15;;;;;;;10.90;6.43;;;9.30;99.90;;;;;;5075082;28;20470;-68
2022/11/10 05:10:44;;;;;;;20.33;7.77;;;9.30;99.90;;;;;;5079249;28;20836;-68
2022/11/10 05:13:10;;;;;;;14.33;6.80;;;9.20;99.90;;;;;;5074157;28;20903;-68
2022/11/10 05:15:40;;;;;;;12.03;7.90;;;9.20;99.90;;;;;;5074979;28;20493;-67
2022/11/10 05:18:07;;;;;;;14.20;9.00;;;9.10;99.90;;;;;;5074360;28;21150;-69
2022/11/10 05:20:33;;;;;;;12.90;7.23;;;9.10;99.90;;;;;;5076450;28;20458;-68
2022/11/10 05:25:46;;;;;;;9.40;7.43;;;9.10;99.90;;;;;;5071849;28;20856;-70
2022/11/10 05:28:12;;;;;;;12.17;7.80;;;9.00;99.90;;;;;;5071920;28;20467;-68
2022/11/10 05:30:40;;;;;;;11.63;8.03;;;9.00;99.90;;;;;;5071847;28;20461;-70
2022/11/10 05:33:07;;;;;;;10.20;7.60;;;9.00;99.90;;;;;;5069607;28;20987;-69
2022/11/10 05:35:34;;;;;;;21.07;8.33;;;9.00;99.90;;;;;;5073313;28;20534;-69
2022/11/10 05:38:01;;;;;;;10.20;7.70;;;9.00;99.90;;;;;;5073827;28;20466;-68
2022/11/10 05:40:28;;;;;;;15.33;8.03;;;8.90;99.90;;;;;;5065708;28;20477;-70
2022/11/10 05:42:57;;;;;;;8.57;7.53;;;8.90;99.90;;;;;;5071435;28;20985;-70
2022/11/10 05:45:26;;;;;;;8.83;7.67;;;9.00;99.90;;;;;;5075404;28;20465;-70
2022/11/10 05:47:53;;;;;;;11.47;7.57;;;8.90;99.90;;;;;;5076166;28;20879;-68
2022/11/10 05:50:22;;;;;;;18.93;8.57;;;9.00;99.90;;;;;;5071468;28;20965;-69
2022/11/10 05:52:50;;;;;;;15.43;8.40;;;9.00;99.90;;;;;;5079886;28;20467;-70
2022/11/10 05:55:19;;;;;;;26.77;8.10;;;9.00;99.90;;;;;;5072806;28;20487;-69
2022/11/10 05:57:48;;;;;;;11.23;7.97;;;9.00;99.90;;;;;;5070854;28;21025;-67
2022/11/10 06:00:20;;;;;;;17.97;8.20;;;9.00;99.90;;;;;;5067856;28;20924;-69
2022/11/10 06:02:55;;;;;;;8.97;8.30;;;9.00;99.90;;;;;;5072634;28;20471;-68
2022/11/10 06:05:22;;;;;;;17.17;8.40;;;9.00;99.90;;;;;;5071436;28;20498;-70
2022/11/10 06:07:49;;;;;;;11.97;8.90;;;8.90;99.90;;;;;;5071009;28;20465;-68
2022/11/10 06:10:16;;;;;;;12.33;10.70;;;8.90;99.90;;;;;;5072449;28;20458;-68
2022/11/10 06:12:43;;;;;;;13.30;9.27;;;8.90;99.90;;;;;;5069833;28;20467;-68
2022/11/10 06:15:11;;;;;;;10.47;9.53;;;8.90;99.90;;;;;;5076446;28;20467;-68
2022/11/10 06:17:39;;;;;;;14.20;9.40;;;8.90;99.90;;;;;;5077987;28;20476;-68
2022/11/10 06:20:07;;;;;;;28.10;11.53;;;8.90;99.90;;;;;;5071114;28;20466;-68
2022/11/10 06:22:34;;;;;;;14.13;9.33;;;8.90;99.90;;;;;;5068604;28;20540;-68
2022/11/10 06:25:01;;;;;;;11.03;8.10;;;8.90;99.90;;;;;;5072879;28;20492;-68
2022/11/10 06:27:27;;;;;;;9.60;8.10;;;8.90;99.90;;;;;;5076405;28;20469;-70
2022/11/10 06:29:55;;;;;;;14.23;8.47;;;8.90;99.90;;;;;;5073321;28;20895;-70
2022/11/10 06:32:21;;;;;;;12.83;10.03;;;8.90;99.90;;;;;;5072462;28;20494;-68
2022/11/10 06:34:50;;;;;;;11.13;8.80;;;8.90;99.90;;;;;;5074943;28;20531;-67
2022/11/10 06:37:17;;;;;;;16.93;9.10;;;8.90;99.90;;;;;;5066361;28;20498;-69
2022/11/10 06:39:45;;;;;;;10.80;8.93;;;8.90;99.90;;;;;;5081312;28;20489;-68
2022/11/10 06:42:12;;;;;;;16.43;8.77;;;8.90;99.90;;;;;;5075239;28;20457;-69
2022/11/10 06:44:38;;;;;;;16.10;10.17;;;8.80;99.90;;;;;;5073702;28;20489;-68
2022/11/10 06:47:05;;;;;;;19.20;9.80;;;8.90;99.90;;;;;;5075966;28;20493;-68
2022/11/10 06:49:32;;;;;;;10.77;9.67;;;8.90;99.90;;;;;;5069857;28;20496;-67
2022/11/10 06:52:00;;;;;;;15.90;9.90;;;8.90;99.90;;;;;;5079935;28;20460;-70
2022/11/10 06:54:27;;;;;;;10.03;8.57;;;8.90;99.90;;;;;;5069670;28;20968;-70
2022/11/10 06:56:54;;;;;;;14.57;8.03;;;8.90;99.90;;;;;;5077337;28;21253;-70
2022/11/10 06:59:22;;;;;;;10.53;9.43;;;8.90;99.90;;;;;;5078955;28;20464;-68
2022/11/10 07:01:49;;;;;;;14.73;10.00;;;8.90;99.90;;;;;;5077992;28;20467;-70
2022/11/10 07:04:16;;;;;;;13.57;9.40;;;8.90;99.90;;;;;;5073323;28;20964;-67
2022/11/10 07:06:43;;;;;;;10.73;8.53;;;9.00;99.90;;;;;;5072979;28;20469;-68
2022/11/10 07:09:12;;;;;;;9.63;8.73;;;9.00;99.90;;;;;;5069766;28;20475;-67
2022/11/10 07:11:39;;;;;;;15.80;10.17;;;8.90;99.90;;;;;;5075563;28;20461;-68
2022/11/10 07:14:05;;;;;;;13.20;9.20;;;9.00;99.90;;;;;;5075957;28;20865;-67
2022/11/10 07:16:32;;;;;;;13.53;9.60;;;9.00;99.90;;;;;;5077849;28;20508;-69
2022/11/10 07:18:59;;;;;;;20.60;10.93;;;9.00;99.90;;;;;;5073298;28;20818;-70
2022/11/10 07:21:26;;;;;;;15.60;10.80;;;9.00;99.90;;;;;;5069143;28;20939;-69
2022/11/10 07:23:53;;;;;;;16.43;10.80;;;9.00;99.90;;;;;;5075320;28;20462;-70
2022/11/10 07:26:21;;;;;;;11.87;10.60;;;9.00;99.90;;;;;;5072856;28;21064;-70
2022/11/10 07:28:48;;;;;;;14.83;10.23;;;9.00;99.90;;;;;;5067283;28;20462;-68
2022/11/10 07:31:15;;;;;;;16.93;10.90;;;9.10;99.90;;;;;;5073160;28;20473;-69
2022/11/10 07:33:42;;;;;;;20.87;9.33;;;9.10;99.90;;;;;;5072855;28;20467;-69
2022/11/10 07:36:09;;;;;;;19.60;9.93;;;9.20;99.90;;;;;;5070568;28;21052;-68
2022/11/10 07:38:37;;;;;;;11.63;10.03;;;9.20;99.90;;;;;;5074127;28;20487;-68
2022/11/10 07:41:04;;;;;;;11.30;10.30;;;9.30;99.90;;;;;;5068954;28;20457;-68
2022/11/10 07:43:32;;;;;;;11.03;9.93;;;9.30;99.90;;;;;;5074009;28;20960;-67
2022/11/10 07:45:59;;;;;;;15.20;10.57;;;9.40;99.90;;;;;;5070762;28;20473;-68
2022/11/10 07:48:26;;;;;;;13.27;9.83;;;9.40;99.90;;;;;;5072480;28;20465;-68
2022/11/10 07:50:53;;;;;;;16.87;10.97;;;9.40;99.90;;;;;;5073188;28;21101;-68
2022/11/10 07:53:20;;;;;;;11.20;10.10;;;9.50;99.90;;;;;;5072442;28;20474;-68
2022/11/10 07:55:48;;;;;;;19.80;10.50;;;9.50;99.90;;;;;;5072905;28;20893;-68
2022/11/10 07:58:17;;;;;;;9.93;8.93;;;9.50;99.90;;;;;;5077961;28;20557;-67
2022/11/10 08:00:46;;;;;;;14.63;9.17;;;9.60;99.90;;;;;;5072976;28;20477;-67
2022/11/10 08:03:14;;;;;;;12.17;7.83;;;9.70;99.90;;;;;;5074519;28;20473;-68
2022/11/10 08:05:41;;;;;;;12.50;8.10;;;9.70;99.90;;;;;;5078256;28;20458;-70
2022/11/10 08:08:08;;;;;;;15.17;8.70;;;9.80;99.90;;;;;;5074091;28;20599;-68
2022/11/10 08:10:36;;;;;;;12.10;8.83;;;9.80;99.90;;;;;;5070756;28;21000;-69
2022/11/10 08:13:04;;;;;;;17.57;8.47;;;9.90;99.90;;;;;;5067344;28;20462;-67
2022/11/10 08:15:33;;;;;;;12.77;8.83;;;9.90;99.90;;;;;;5071013;28;20473;-69
2022/11/10 08:18:02;;;;;;;12.50;8.57;;;10.10;99.90;;;;;;5078986;28;20485;-68
2022/11/10 08:20:29;;;;;;;16.63;9.60;;;10.10;99.90;;;;;;5069502;28;20945;-69
2022/11/10 08:23:00;;;;;;;26.13;8.80;;;10.20;99.90;;;;;;5072805;28;20470;-69
2022/11/10 08:25:27;;;;;;;13.03;8.50;;;10.30;99.90;;;;;;5071569;28;20462;-68
2022/11/10 08:27:59;;;;;;;10.37;8.63;;;10.30;99.90;;;;;;5071399;28;20841;-68
2022/11/10 08:30:27;;;;;;;12.73;8.47;;;10.40;99.90;;;;;;5071675;28;20461;-69
2022/11/10 08:32:55;;;;;;;9.43;7.97;;;10.50;99.90;;;;;;5075888;28;20463;-68
2022/11/10 08:35:26;;;;;;;19.03;7.97;;;10.50;99.90;;;;;;5069611;28;20481;-68
2022/11/10 08:37:52;;;;;;;14.30;8.33;;;10.60;99.90;;;;;;5069436;28;20845;-70
2022/11/10 08:40:21;;;;;;;10.63;7.70;;;10.60;99.90;;;;;;5069797;28;20466;-68
2022/11/10 08:42:48;;;;;;;14.57;7.60;;;10.70;99.90;;;;;;5074084;28;21111;-68
2022/11/10 08:45:15;;;;;;;19.13;7.33;;;10.80;99.90;;;;;;5073495;28;21105;-70
2022/11/10 08:47:43;;;;;;;10.50;7.47;;;10.90;99.90;;;;;;5072728;28;20477;-68
2022/11/10 08:50:10;;;;;;;9.67;8.00;;;10.90;99.90;;;;;;5072948;28;20876;-68
2022/11/10 08:52:38;;;;;;;20.03;8.43;;;11.00;99.90;;;;;;5074246;28;20466;-68
2022/11/10 08:55:06;;;;;;;21.13;7.80;;;11.10;99.90;;;;;;5080983;28;20473;-70
2022/11/10 08:57:32;;;;;;;22.27;7.60;;;11.10;99.90;;;;;;5071353;28;20497;-69
2022/11/10 08:59:59;;;;;;;20.63;8.53;;;11.20;99.90;;;;;;5075832;28;20641;-68
2022/11/10 09:02:26;;;;;;;15.73;9.83;;;11.20;99.90;;;;;;5074560;28;20473;-68
2022/11/10 09:04:53;;;;;;;11.60;8.03;;;11.30;99.90;;;;;;5072174;28;20507;-68
2022/11/10 09:07:20;;;;;;;14.67;8.70;;;11.40;99.90;;;;;;5072920;28;20846;-68
2022/11/10 09:09:49;;;;;;;15.00;8.73;;;11.40;99.90;;;;;;5077965;28;20470;-68
2022/11/10 09:12:16;;;;;;;21.20;9.37;;;11.50;99.90;;;;;;5070902;28;20506;-68
2022/11/10 09:14:43;;;;;;;12.17;9.17;;;11.60;99.90;;;;;;5078994;28;20459;-69
2022/11/10 09:17:10;;;;;;;11.17;9.70;;;11.60;99.90;;;;;;5071295;28;20873;-68
2022/11/10 09:19:37;;;;;;;12.20;9.37;;;11.70;99.90;;;;;;5076622;28;21082;-68
2022/11/10 09:22:04;;;;;;;16.50;9.57;;;11.80;99.90;;;;;;5076114;28;20518;-68
2022/11/10 09:24:30;;;;;;;10.27;9.10;;;11.80;99.90;;;;;;5075600;28;20459;-68
2022/11/10 09:26:59;;;;;;;19.10;10.47;;;11.90;99.90;;;;;;5073706;28;20447;-68
2022/11/10 09:29:26;;;;;;;10.87;9.50;;;12.00;99.90;;;;;;5072774;28;20999;-69
2022/11/10 09:31:52;;;;;;;27.40;11.00;;;12.00;99.90;;;;;;5075705;28;20463;-68
2022/11/10 09:34:19;;;;;;;15.30;10.03;;;12.10;99.90;;;;;;5072332;28;20523;-69
2022/11/10 09:36:46;;;;;;;14.10;9.97;;;12.20;99.90;;;;;;5074663;28;20489;-71
2022/11/10 09:39:14;;;;;;;20.27;11.33;;;12.20;99.90;;;;;;5072330;28;20470;-69
2022/11/10 09:41:43;;;;;;;14.07;10.13;;;12.30;99.90;;;;;;5070951;28;20467;-69
2022/11/10 09:44:21;;;;;;;12.67;10.43;;;12.30;99.90;;;;;;5075549;28;20469;-68
2022/11/10 09:46:52;;;;;;;15.63;10.80;;;12.30;99.90;;;;;;5073998;28;20467;-68
2022/11/10 09:49:29;;;;;;;21.83;10.43;;;12.40;99.90;;;;;;5077771;28;20466;-71
2022/11/10 09:51:58;;;;;;;27.37;11.90;;;12.50;99.90;;;;;;5076266;28;20513;-69
2022/11/10 09:54:36;;;;;;;23.23;13.30;;;12.60;99.90;;;;;;5078915;28;20473;-70
2022/11/10 09:57:05;;;;;;;12.13;10.83;;;12.60;99.90;;;;;;5078559;28;20485;-68
2022/11/10 09:59:34;;;;;;;20.50;12.47;;;12.70;99.90;;;;;;5070001;28;20463;-69
2022/11/10 10:02:04;;;;;;;28.27;14.00;;;12.80;99.90;;;;;;5073802;28;20462;-69
2022/11/10 10:04:52;;;;;;;14.77;11.60;;;12.80;99.90;;;;;;5076089;28;20627;-70
2022/11/10 10:07:25;;;;;;;21.03;12.37;;;12.90;99.90;;;;;;5075759;28;20469;-70
2022/11/10 10:10:00;;;;;;;14.03;12.10;;;12.90;99.90;;;;;;5077037;28;20462;-69
2022/11/10 10:12:50;;;;;;;26.37;12.90;;;13.00;99.90;;;;;;5073074;28;20463;-70
2022/11/10 10:15:27;;;;;;;15.87;11.97;;;13.10;99.90;;;;;;5071211;28;20523;-70
2022/11/10 10:18:05;;;;;;;15.80;12.10;;;13.10;99.90;;;;;;5072430;28;20849;-69
2022/11/10 10:20:41;;;;;;;14.60;13.17;;;13.10;99.90;;;;;;5071150;28;20462;-69
2022/11/10 10:23:19;;;;;;;15.33;12.67;;;13.10;99.90;;;;;;5076540;28;20922;-70
2022/11/10 10:25:46;;;;;;;13.60;12.00;;;13.20;99.90;;;;;;5078417;28;20842;-71
2022/11/10 10:28:19;;;;;;;15.57;13.93;;;13.30;99.90;;;;;;5076382;28;20455;-70
2022/11/10 10:30:48;;;;;;;19.97;12.93;;;13.40;99.90;;;;;;5073380;28;20961;-69
2022/11/10 10:33:17;;;;;;;26.40;20.93;;;13.70;99.90;;;;;;5068520;28;20470;-69
2022/11/10 10:35:46;;;;;;;20.67;16.63;;;14.20;99.90;;;;;;5067795;28;20469;-69
2022/11/10 10:38:21;;;;;;;18.43;14.20;;;14.60;99.90;;;;;;5064736;28;20494;-69
2022/11/10 10:40:51;;;;;;;15.93;14.23;;;14.90;99.90;;;;;;5076484;28;20487;-69
2022/11/10 10:43:17;;;;;;;15.03;13.83;;;15.40;99.90;;;;;;5075308;28;20480;-69
2022/11/10 10:45:44;;;;;;;15.77;14.30;;;15.90;99.90;;;;;;5067198;28;20474;-69
2022/11/10 10:48:27;;;;;;;16.60;15.17;;;16.10;99.90;;;;;;5068068;28;21048;-72
2022/11/10 10:50:54;;;;;;;15.07;13.87;;;16.10;99.90;;;;;;5065597;28;20462;-69
2022/11/10 10:53:22;;;;;;;15.43;13.90;;;16.10;99.90;;;;;;5070926;28;20461;-69
2022/11/10 10:55:58;;;;;;;16.07;14.67;;;16.10;99.90;;;;;;5074901;28;20970;-69
2022/11/10 10:58:28;;;;;;;25.27;14.90;;;16.20;99.90;;;;;;5067937;28;21038;-69
2022/11/10 11:01:01;;;;;;;32.37;17.80;;;16.50;99.90;;;;;;5074279;28;20987;-69
2022/11/10 11:03:37;;;;;;;16.60;14.90;;;16.80;99.90;;;;;;5070800;28;20454;-69
2022/11/10 11:06:08;;;;;;;15.70;14.30;;;17.00;99.90;;;;;;5070267;28;20477;-70
2022/11/10 11:08:34;;;;;;;16.20;14.60;;;16.70;99.90;;;;;;5067501;28;20458;-70
2022/11/10 11:11:10;;;;;;;15.80;14.23;;;17.20;99.90;;;;;;5070885;28;20471;-69
2022/11/10 11:13:37;;;;;;;16.83;15.40;;;17.20;99.90;;;;;;5074185;28;20459;-70
2022/11/10 11:16:06;;;;;;;15.93;14.77;;;16.70;99.90;;;;;;5071256;28;20473;-69
2022/11/10 11:18:38;;;;;;;17.07;15.70;;;16.90;99.90;;;;;;5069288;28;20484;-69
2022/11/10 11:21:14;;;;;;;16.07;14.83;;;17.30;99.90;;;;;;5073199;28;20489;-69
2022/11/10 11:23:54;;;;;;;20.47;14.60;;;17.40;99.90;;;;;;5066771;28;20868;-68
2022/11/10 11:26:29;;;;;;;16.13;14.73;;;16.80;99.90;;;;;;5073630;28;20469;-72
2022/11/10 11:29:10;;;;;;;15.83;14.33;;;16.80;99.90;;;;;;5072753;28;21051;-70
2022/11/10 11:31:45;;;;;;;14.87;13.70;;;17.10;99.90;;;;;;5073955;28;20481;-69
2022/11/10 11:34:21;;;;;;;16.63;14.50;;;17.20;99.90;;;;;;5070663;28;20462;-69
2022/11/10 11:37:00;;;;;;;15.30;14.27;;;17.70;99.90;;;;;;5072429;28;20834;-69
2022/11/10 11:39:38;;;;;;;16.50;15.00;;;17.30;99.90;;;;;;5071019;28;20827;-68
2022/11/10 11:42:15;;;;;;;16.60;15.20;;;17.50;99.90;;;;;;5075141;28;20799;-71
2022/11/10 11:44:55;;;;;;;16.67;15.17;;;17.20;99.90;;;;;;5069223;28;20936;-71
2022/11/10 11:47:33;;;;;;;16.03;14.73;;;17.20;99.90;;;;;;5070168;28;20471;-69
2022/11/10 11:50:16;;;;;;;16.77;15.30;;;17.20;99.90;;;;;;5071816;28;20593;-71
2022/11/10 11:52:54;;;;;;;15.67;14.40;;;17.70;99.90;;;;;;5072595;28;20462;-70
2022/11/10 11:55:32;;;;;;;15.20;14.07;;;17.70;99.90;;;;;;5074824;28;20472;-69
2022/11/10 11:58:20;;;;;;;17.77;16.00;;;18.30;99.90;;;;;;5076144;28;20474;-70
2022/11/10 12:00:59;;;;;;;28.07;16.70;;;18.50;99.90;;;;;;5077615;28;20595;-68
2022/11/10 12:03:37;;;;;;;16.07;14.90;;;18.40;99.90;;;;;;5074371;28;20988;-68
2022/11/10 12:06:22;;;;;;;17.60;16.17;;;18.20;99.90;;;;;;5073484;28;20459;-68
2022/11/10 12:08:59;;;;;;;16.77;15.50;;;17.90;99.90;;;;;;5072148;28;20470;-69
2022/11/10 12:11:35;;;;;;;16.50;15.40;;;18.10;99.90;;;;;;5069130;28;20466;-69
2022/11/10 12:14:08;;;;;;;17.70;16.27;;;17.70;99.90;;;;;;5069985;28;20885;-68
2022/11/10 12:16:38;;;;;;;16.17;14.87;;;18.20;99.90;;;;;;5070341;28;20471;-69
2022/11/10 12:19:14;;;;;;;20.00;16.60;;;18.10;99.90;;;;;;5068856;28;21062;-69
2022/11/10 12:21:50;;;;;;;16.27;14.80;;;18.30;99.90;;;;;;5066025;28;20469;-70
2022/11/10 12:24:36;;;;;;;16.03;14.93;;;18.10;99.90;;;;;;5072003;28;20469;-69
2022/11/10 12:27:10;;;;;;;16.10;14.73;;;17.80;99.90;;;;;;5068667;28;20499;-71
2022/11/10 12:29:42;;;;;;;16.50;15.37;;;18.10;99.90;;;;;;5070530;28;20481;-68
2022/11/10 12:32:15;;;;;;;16.07;14.97;;;18.30;99.90;;;;;;5072744;28;20469;-68
2022/11/10 12:34:45;;;;;;;16.87;15.37;;;18.20;99.90;;;;;;5068874;28;20455;-71
2022/11/10 12:37:18;;;;;;;16.53;15.10;;;18.40;99.90;;;;;;5072852;28;20493;-72
2022/11/10 12:39:50;;;;;;;16.13;15.00;;;18.60;99.90;;;;;;5070783;28;20827;-72
2022/11/10 12:42:22;;;;;;;16.70;15.30;;;18.30;99.90;;;;;;5071284;28;20531;-69
2022/11/10 12:44:59;;;;;;;17.30;15.60;;;18.20;99.90;;;;;;5075104;28;20516;-69
2022/11/10 12:47:31;;;;;;;16.33;14.80;;;17.90;99.90;;;;;;5072078;28;20969;-68
2022/11/10 12:50:11;;;;;;;16.17;15.17;;;18.00;99.90;;;;;;5073228;28;20899;-71
2022/11/10 12:52:44;;;;;;;16.97;15.83;;;17.80;99.90;;;;;;5068722;28;20987;-71
2022/11/10 12:55:14;;;;;;;17.23;15.73;;;18.30;99.90;;;;;;5068783;28;20467;-69
2022/11/10 12:57:42;;;;;;;16.20;15.10;;;18.60;99.90;;;;;;5072285;28;20565;-71
2022/11/10 13:00:24;;;;;;;16.83;15.60;;;18.50;99.90;;;;;;5075822;28;20821;-72
2022/11/10 13:02:54;;;;;;;16.73;15.53;;;18.40;99.90;;;;;;5066552;28;20973;-70
2022/11/10 13:05:40;;;;;;;19.87;16.17;;;18.50;99.90;;;;;;5071268;28;20548;-69
2022/11/10 13:08:19;;;;;;;17.70;16.40;;;18.30;99.90;;;;;;5071026;28;20453;-69